createdAt,value
2019-03-27T00:00:11.994Z,7.96
2019-03-27T00:01:11.898Z,7.84
2019-03-27T00:02:11.903Z,7.92
2019-03-27T00:03:11.709Z,7.95
2019-03-27T00:04:11.713Z,7.91
2019-03-27T00:05:11.545Z,7.96
2019-03-27T00:06:11.476Z,7.92
2019-03-27T00:07:11.441Z,7.94
2019-03-27T00:08:11.324Z,7.99
2019-03-27T00:09:11.203Z,7.95
2019-03-27T00:10:11.151Z,7.88
2019-03-27T00:11:11.060Z,7.91
2019-03-27T00:12:10.975Z,7.92
2019-03-27T00:13:10.985Z,7.92
2019-03-27T00:14:10.780Z,7.91
2019-03-27T00:15:13.316Z,7.81
2019-03-27T00:16:10.638Z,7.88
2019-03-27T00:17:10.535Z,7.82
2019-03-27T00:18:10.489Z,7.91
2019-03-27T00:19:10.367Z,7.81
2019-03-27T00:20:10.281Z,7.81
2019-03-27T00:21:10.211Z,7.84
2019-03-27T00:22:10.109Z,7.86
2019-03-27T00:23:12.045Z,7.76
2019-03-27T00:24:09.950Z,7.84
2019-03-27T00:25:09.909Z,7.76
2019-03-27T00:26:09.807Z,7.73
2019-03-27T00:27:09.719Z,7.76
2019-03-27T00:28:09.595Z,7.70
2019-03-27T00:29:09.526Z,7.73
2019-03-27T00:30:09.430Z,7.73
2019-03-27T00:31:11.827Z,7.71
2019-03-27T00:32:09.257Z,7.70
2019-03-27T00:33:09.247Z,7.71
2019-03-27T00:34:09.090Z,7.70
2019-03-27T00:35:09.060Z,7.69
2019-03-27T00:36:08.936Z,7.81
2019-03-27T00:37:08.864Z,7.73
2019-03-27T00:38:08.749Z,7.73
2019-03-27T00:39:08.780Z,7.81
2019-03-27T00:40:08.579Z,7.73
2019-03-27T00:41:08.623Z,7.79
2019-03-27T00:42:08.408Z,7.73
2019-03-27T00:43:08.331Z,7.69
2019-03-27T00:44:08.304Z,7.73
2019-03-27T00:45:08.159Z,7.71
2019-03-27T00:46:08.086Z,7.76
2019-03-27T00:47:08.015Z,7.70
2019-03-27T00:48:07.904Z,7.70
2019-03-27T00:49:07.817Z,7.81
2019-03-27T00:50:07.838Z,7.79
2019-03-27T00:51:07.669Z,7.79
2019-03-27T00:52:07.562Z,7.84
2019-03-27T00:53:07.546Z,7.79
2019-03-27T00:54:07.400Z,7.79
2019-03-27T00:55:07.311Z,7.89
2019-03-27T00:56:07.293Z,7.91
2019-03-27T00:57:07.143Z,7.84
2019-03-27T00:58:07.054Z,7.91
2019-03-27T00:59:07.076Z,7.88
2019-03-27T01:00:06.890Z,7.92
2019-03-27T01:01:06.920Z,7.91
2019-03-27T01:02:06.719Z,7.94
2019-03-27T01:03:06.694Z,7.94
2019-03-27T01:04:06.551Z,7.88
2019-03-27T01:05:06.501Z,7.95
2019-03-27T01:06:06.399Z,7.94
2019-03-27T01:07:06.310Z,7.96
2019-03-27T01:08:06.217Z,7.95
2019-03-27T01:09:06.130Z,7.92
2019-03-27T01:10:06.039Z,7.84
2019-03-27T01:11:06.064Z,7.92
2019-03-27T01:12:05.872Z,7.95
2019-03-27T01:13:05.863Z,7.91
2019-03-27T01:14:05.702Z,7.92
2019-03-27T01:15:05.649Z,7.86
2019-03-27T01:16:05.548Z,7.92
2019-03-27T01:17:05.460Z,7.82
2019-03-27T01:18:05.366Z,7.81
2019-03-27T01:19:05.370Z,7.69
2019-03-27T01:20:05.199Z,7.71
2019-03-27T01:21:06.130Z,7.73
2019-03-27T01:22:05.025Z,7.70
2019-03-27T01:23:04.940Z,7.70
2019-03-27T01:24:04.890Z,7.69
2019-03-27T01:25:04.772Z,7.58
2019-03-27T01:26:04.706Z,7.55
2019-03-27T01:27:04.707Z,7.52
2019-03-27T01:28:04.518Z,7.58
2019-03-27T01:29:04.518Z,7.63
2019-03-27T01:30:04.362Z,7.52
2019-03-27T01:31:04.358Z,7.58
2019-03-27T01:32:04.187Z,7.58
2019-03-27T01:33:04.099Z,7.57
2019-03-27T01:34:04.038Z,7.55
2019-03-27T01:35:03.931Z,7.58
2019-03-27T01:36:03.857Z,7.48
2019-03-27T01:37:03.858Z,7.55
2019-03-27T01:38:03.676Z,7.48
2019-03-27T01:39:03.585Z,7.52
2019-03-27T01:40:03.570Z,7.51
2019-03-27T01:41:03.439Z,7.47
2019-03-27T01:42:03.339Z,7.58
2019-03-27T01:43:03.282Z,7.55
2019-03-27T01:44:03.162Z,7.52
2019-03-27T01:45:03.086Z,7.45
2019-03-27T01:46:03.028Z,7.48
2019-03-27T01:47:02.910Z,7.50
2019-03-27T01:48:02.829Z,7.54
2019-03-27T01:49:02.813Z,7.48
2019-03-27T01:50:02.651Z,7.50
2019-03-27T01:51:02.586Z,7.45
2019-03-27T01:52:02.537Z,7.50
2019-03-27T01:53:02.402Z,7.48
2019-03-27T01:54:02.436Z,7.47
2019-03-27T01:55:02.234Z,7.48
2019-03-27T01:56:02.274Z,7.44
2019-03-27T01:57:02.070Z,7.45
2019-03-27T01:58:01.979Z,7.45
2019-03-27T01:59:01.962Z,7.48
2019-03-27T02:00:01.808Z,7.52
2019-03-27T02:01:01.743Z,7.58
2019-03-27T02:02:01.673Z,7.62
2019-03-27T02:03:01.565Z,7.69
2019-03-27T02:04:01.493Z,7.70
2019-03-27T02:05:01.492Z,7.70
2019-03-27T02:06:01.319Z,7.71
2019-03-27T02:07:01.215Z,7.74
2019-03-27T02:08:01.203Z,7.73
2019-03-27T02:09:01.049Z,7.73
2019-03-27T02:10:01.013Z,7.73
2019-03-27T02:11:00.892Z,7.84
2019-03-27T02:12:00.821Z,7.79
2019-03-27T02:13:00.710Z,7.86
2019-03-27T02:14:00.625Z,7.84
2019-03-27T02:15:00.542Z,7.82
2019-03-27T02:16:06.662Z,7.82
2019-03-27T02:17:00.371Z,7.76
2019-03-27T02:18:00.284Z,7.85
2019-03-27T02:19:00.263Z,7.73
2019-03-27T02:20:00.116Z,7.82
2019-03-27T02:21:00.047Z,7.84
2019-03-27T02:21:59.972Z,7.86
2019-03-27T02:22:59.875Z,7.76
2019-03-27T02:23:59.783Z,7.73
2019-03-27T02:24:59.789Z,7.70
2019-03-27T02:25:59.622Z,7.69
2019-03-27T02:26:59.534Z,7.67
2019-03-27T02:27:59.503Z,7.67
2019-03-27T02:28:59.359Z,7.55
2019-03-27T02:29:59.313Z,7.51
2019-03-27T02:30:59.211Z,7.55
2019-03-27T02:32:07.109Z,7.57
2019-03-27T02:32:59.023Z,7.48
2019-03-27T02:33:59.032Z,7.48
2019-03-27T02:34:58.846Z,7.37
2019-03-27T02:35:58.870Z,7.41
2019-03-27T02:36:58.677Z,7.37
2019-03-27T02:38:05.611Z,7.37
2019-03-27T02:38:58.505Z,7.30
2019-03-27T02:39:58.459Z,7.30
2019-03-27T02:40:58.362Z,7.21
2019-03-27T02:41:58.370Z,7.16
2019-03-27T02:42:58.169Z,7.16
2019-03-27T02:43:58.154Z,7.07
2019-03-27T02:44:58.085Z,7.08
2019-03-27T02:45:57.931Z,7.01
2019-03-27T02:46:57.831Z,7.00
2019-03-27T02:47:57.796Z,6.97
2019-03-27T02:48:57.664Z,6.87
2019-03-27T02:49:57.606Z,6.86
2019-03-27T02:50:57.507Z,6.81
2019-03-27T02:51:57.516Z,6.69
2019-03-27T02:52:57.319Z,6.57
2019-03-27T02:53:57.325Z,6.58
2019-03-27T02:54:57.158Z,6.64
2019-03-27T02:55:59.111Z,6.54
2019-03-27T02:56:56.983Z,6.45
2019-03-27T02:57:56.938Z,6.42
2019-03-27T02:58:56.816Z,6.38
2019-03-27T02:59:56.747Z,6.35
2019-03-27T03:00:56.651Z,6.32
2019-03-27T03:01:57.583Z,6.24
2019-03-27T03:02:56.477Z,6.24
2019-03-27T03:03:56.384Z,6.17
2019-03-27T03:04:56.374Z,6.11
2019-03-27T03:05:56.232Z,6.05
2019-03-27T03:06:56.130Z,5.90
2019-03-27T03:07:56.089Z,5.84
2019-03-27T03:08:55.965Z,5.93
2019-03-27T03:09:55.876Z,5.90
2019-03-27T03:10:55.836Z,5.83
2019-03-27T03:11:55.703Z,5.84
2019-03-27T03:12:55.614Z,5.81
2019-03-27T03:13:55.617Z,5.73
2019-03-27T03:14:55.445Z,5.59
2019-03-27T03:15:55.372Z,5.62
2019-03-27T03:16:55.333Z,5.55
2019-03-27T03:17:55.194Z,5.56
2019-03-27T03:18:55.108Z,5.48
2019-03-27T03:19:55.045Z,5.41
2019-03-27T03:20:54.950Z,5.42
2019-03-27T03:21:54.956Z,5.44
2019-03-27T03:22:54.758Z,5.41
2019-03-27T03:23:54.765Z,5.38
2019-03-27T03:24:54.590Z,5.35
2019-03-27T03:25:54.517Z,5.32
2019-03-27T03:26:54.481Z,5.26
2019-03-27T03:27:54.332Z,5.27
2019-03-27T03:28:54.250Z,5.32
2019-03-27T03:29:54.196Z,5.22
2019-03-27T03:30:54.090Z,5.24
2019-03-27T03:31:53.991Z,5.26
2019-03-27T03:32:54.008Z,5.19
2019-03-27T03:33:53.831Z,5.11
2019-03-27T03:34:53.744Z,5.04
2019-03-27T03:35:57.141Z,4.99
2019-03-27T03:36:53.562Z,5.05
2019-03-27T03:37:53.475Z,4.99
2019-03-27T03:38:53.434Z,5.04
2019-03-27T03:39:53.300Z,5.02
2019-03-27T03:40:53.228Z,4.99
2019-03-27T03:42:00.111Z,4.96
2019-03-27T03:42:53.048Z,4.94
2019-03-27T03:43:52.962Z,4.97
2019-03-27T03:44:52.963Z,4.99
2019-03-27T03:45:52.809Z,4.91
2019-03-27T03:46:59.915Z,4.80
2019-03-27T03:47:52.634Z,4.88
2019-03-27T03:48:52.608Z,4.86
2019-03-27T03:49:52.451Z,4.87
2019-03-27T03:50:52.375Z,4.79
2019-03-27T03:51:52.303Z,4.87
2019-03-27T03:52:52.198Z,4.80
2019-03-27T03:53:52.103Z,4.80
2019-03-27T03:54:53.038Z,4.79
2019-03-27T03:55:51.940Z,4.84
2019-03-27T03:56:51.857Z,4.80
2019-03-27T03:57:51.829Z,4.83
2019-03-27T03:58:51.675Z,4.67
2019-03-27T03:59:51.582Z,4.74
2019-03-27T04:00:51.542Z,4.68
2019-03-27T04:01:51.424Z,4.68
2019-03-27T04:02:51.329Z,4.62
2019-03-27T04:03:51.255Z,4.62
2019-03-27T04:04:51.149Z,4.57
2019-03-27T04:05:51.059Z,4.56
2019-03-27T04:06:51.106Z,4.61
2019-03-27T04:07:50.892Z,4.59
2019-03-27T04:08:50.813Z,4.57
2019-03-27T04:09:50.784Z,4.57
2019-03-27T04:10:50.636Z,4.54
2019-03-27T04:11:50.565Z,4.56
2019-03-27T04:12:50.491Z,4.46
2019-03-27T04:13:50.379Z,4.51
2019-03-27T04:14:50.286Z,4.46
2019-03-27T04:15:50.313Z,4.50
2019-03-27T04:16:50.136Z,4.46
2019-03-27T04:17:50.039Z,4.38
2019-03-27T04:18:50.025Z,4.43
2019-03-27T04:19:49.858Z,4.46
2019-03-27T04:20:49.836Z,4.34
2019-03-27T04:21:49.698Z,4.46
2019-03-27T04:22:56.627Z,4.50
2019-03-27T04:23:49.522Z,4.51
2019-03-27T04:24:49.454Z,4.50
2019-03-27T04:26:09.274Z,4.49
2019-03-27T04:26:49.294Z,4.56
2019-03-27T04:27:49.169Z,4.57
2019-03-27T04:28:50.096Z,4.59
2019-03-27T04:29:48.998Z,4.64
2019-03-27T04:30:48.911Z,4.59
2019-03-27T04:31:48.918Z,4.69
2019-03-27T04:32:48.736Z,4.72
2019-03-27T04:33:48.654Z,4.84
2019-03-27T04:34:48.631Z,4.84
2019-03-27T04:35:48.477Z,4.97
2019-03-27T04:36:48.412Z,4.97
2019-03-27T04:37:48.417Z,5.01
2019-03-27T04:38:48.228Z,4.97
2019-03-27T04:39:48.132Z,5.06
2019-03-27T04:40:48.129Z,5.11
2019-03-27T04:41:47.975Z,5.11
2019-03-27T04:42:47.942Z,5.17
2019-03-27T04:43:47.789Z,5.22
2019-03-27T04:44:47.716Z,5.17
2019-03-27T04:45:54.615Z,5.24
2019-03-27T04:46:47.547Z,5.32
2019-03-27T04:47:47.449Z,5.35
2019-03-27T04:48:47.468Z,5.32
2019-03-27T04:49:47.279Z,5.30
2019-03-27T04:50:47.190Z,5.40
2019-03-27T04:51:48.131Z,5.44
2019-03-27T04:52:47.019Z,5.47
2019-03-27T04:53:46.936Z,5.55
2019-03-27T04:54:46.898Z,5.58
2019-03-27T04:55:46.769Z,5.65
2019-03-27T04:56:46.691Z,5.62
2019-03-27T04:57:46.615Z,5.55
2019-03-27T04:58:46.503Z,5.55
2019-03-27T04:59:46.422Z,5.59
2019-03-27T05:00:46.425Z,5.59
2019-03-27T05:01:46.261Z,5.60
2019-03-27T05:02:46.169Z,5.60
2019-03-27T05:03:52.600Z,5.74
2019-03-27T05:04:45.993Z,5.69
2019-03-27T05:05:45.908Z,5.65
2019-03-27T05:06:45.884Z,5.67
2019-03-27T05:07:45.766Z,5.70
2019-03-27T05:08:45.790Z,5.78
2019-03-27T05:09:45.566Z,5.84
2019-03-27T05:10:45.481Z,5.88
2019-03-27T05:11:45.509Z,5.78
2019-03-27T05:12:45.307Z,5.78
2019-03-27T05:13:45.224Z,5.88
2019-03-27T05:14:46.216Z,5.88
2019-03-27T05:15:45.052Z,5.87
2019-03-27T05:16:45.031Z,5.85
2019-03-27T05:17:46.489Z,5.80
2019-03-27T05:18:44.912Z,5.90
2019-03-27T05:19:44.712Z,5.85
2019-03-27T05:20:45.745Z,5.92
2019-03-27T05:21:44.561Z,5.90
2019-03-27T05:22:44.528Z,5.95
2019-03-27T05:23:44.374Z,5.90
2019-03-27T05:24:44.340Z,5.96
2019-03-27T05:25:44.202Z,5.84
2019-03-27T05:26:47.664Z,5.88
2019-03-27T05:27:44.032Z,5.92
2019-03-27T05:28:45.022Z,5.98
2019-03-27T05:29:43.866Z,5.88
2019-03-27T05:30:43.776Z,5.84
2019-03-27T05:31:43.710Z,5.88
2019-03-27T05:32:43.607Z,5.93
2019-03-27T05:33:43.523Z,5.98
2019-03-27T05:34:43.448Z,5.93
2019-03-27T05:35:43.357Z,5.90
2019-03-27T05:36:43.277Z,5.90
2019-03-27T05:37:43.201Z,5.99
2019-03-27T05:38:43.098Z,5.93
2019-03-27T05:39:43.013Z,5.93
2019-03-27T05:40:43.020Z,5.90
2019-03-27T05:41:42.848Z,5.85
2019-03-27T05:42:42.750Z,5.70
2019-03-27T05:43:42.762Z,5.83
2019-03-27T05:44:42.581Z,5.81
2019-03-27T05:45:42.496Z,5.85
2019-03-27T05:46:42.580Z,5.88
2019-03-27T05:47:42.326Z,5.85
2019-03-27T05:48:42.244Z,5.90
2019-03-27T05:49:42.158Z,5.87
2019-03-27T05:50:42.067Z,5.93
2019-03-27T05:51:42.014Z,5.90
2019-03-27T05:52:41.902Z,5.92
2019-03-27T05:53:41.811Z,5.92
2019-03-27T05:54:41.738Z,5.93
2019-03-27T05:55:41.642Z,5.96
2019-03-27T05:56:41.579Z,6.01
2019-03-27T05:57:41.471Z,6.01
2019-03-27T05:58:41.394Z,6.02
2019-03-27T05:59:41.304Z,6.05
2019-03-27T06:00:41.222Z,6.17
2019-03-27T06:01:41.141Z,6.16
2019-03-27T06:02:41.070Z,6.14
2019-03-27T06:03:40.958Z,6.19
2019-03-27T06:04:40.920Z,6.21
2019-03-27T06:05:40.796Z,6.20
2019-03-27T06:06:40.777Z,6.21
2019-03-27T06:07:41.629Z,6.20
2019-03-27T06:08:40.547Z,6.21
2019-03-27T06:09:40.471Z,6.24
2019-03-27T06:10:40.369Z,6.19
2019-03-27T06:11:40.301Z,6.21
2019-03-27T06:12:40.309Z,6.30
2019-03-27T06:13:40.119Z,6.28
2019-03-27T06:14:40.036Z,6.24
2019-03-27T06:15:39.974Z,6.39
2019-03-27T06:16:39.891Z,6.39
2019-03-27T06:17:39.806Z,6.38
2019-03-27T06:18:39.696Z,6.32
2019-03-27T06:19:39.602Z,6.50
2019-03-27T06:20:39.515Z,6.43
2019-03-27T06:21:39.465Z,6.40
2019-03-27T06:22:39.353Z,6.48
2019-03-27T06:23:39.274Z,6.51
2019-03-27T06:24:39.173Z,6.54
2019-03-27T06:25:41.238Z,6.50
2019-03-27T06:26:39.022Z,6.58
2019-03-27T06:27:38.962Z,6.58
2019-03-27T06:28:38.835Z,6.68
2019-03-27T06:29:38.771Z,6.68
2019-03-27T06:30:38.663Z,6.60
2019-03-27T06:31:38.597Z,6.64
2019-03-27T06:32:38.502Z,6.57
2019-03-27T06:33:38.407Z,6.61
2019-03-27T06:34:38.331Z,6.72
2019-03-27T06:35:38.251Z,6.73
2019-03-27T06:36:38.171Z,6.68
2019-03-27T06:37:38.077Z,6.69
2019-03-27T06:38:37.991Z,6.81
2019-03-27T06:39:37.903Z,6.87
2019-03-27T06:40:39.714Z,6.96
2019-03-27T06:41:37.746Z,6.94
2019-03-27T06:42:37.651Z,7.01
2019-03-27T06:43:37.591Z,7.01
2019-03-27T06:44:37.474Z,7.01
2019-03-27T06:45:37.401Z,7.16
2019-03-27T06:46:37.322Z,7.21
2019-03-27T06:47:37.222Z,7.41
2019-03-27T06:48:37.145Z,7.42
2019-03-27T06:49:37.058Z,7.58
2019-03-27T06:50:36.987Z,7.71
2019-03-27T06:51:40.409Z,7.91
2019-03-27T06:52:36.798Z,8.04
2019-03-27T06:53:36.739Z,7.92
2019-03-27T06:54:36.634Z,8.13
2019-03-27T06:55:36.549Z,8.18
2019-03-27T06:56:36.490Z,8.29
2019-03-27T06:57:36.382Z,8.46
2019-03-27T06:58:36.297Z,8.52
2019-03-27T06:59:36.229Z,8.57
2019-03-27T07:00:36.131Z,8.50
2019-03-27T07:01:36.066Z,8.65
2019-03-27T07:02:35.973Z,8.61
2019-03-27T07:03:35.887Z,8.55
2019-03-27T07:04:35.806Z,8.76
2019-03-27T07:05:35.713Z,8.82
2019-03-27T07:06:35.650Z,8.85
2019-03-27T07:07:35.554Z,8.93
2019-03-27T07:08:35.470Z,8.94
2019-03-27T07:09:35.379Z,9.16
2019-03-27T07:10:35.316Z,9.17
2019-03-27T07:11:35.242Z,9.27
2019-03-27T07:12:35.140Z,9.23
2019-03-27T07:13:35.061Z,9.38
2019-03-27T07:14:34.988Z,9.42
2019-03-27T07:15:35.907Z,9.60
2019-03-27T07:16:34.843Z,9.58
2019-03-27T07:17:34.729Z,9.59
2019-03-27T07:18:39.915Z,9.70
2019-03-27T07:19:34.580Z,9.70
2019-03-27T07:20:35.542Z,9.73
2019-03-27T07:21:34.417Z,9.67
2019-03-27T07:22:34.347Z,9.80
2019-03-27T07:23:34.242Z,9.81
2019-03-27T07:24:34.157Z,9.78
2019-03-27T07:25:34.083Z,9.83
2019-03-27T07:26:34.013Z,9.83
2019-03-27T07:27:33.908Z,9.92
2019-03-27T07:28:33.834Z,9.92
2019-03-27T07:29:33.744Z,9.96
2019-03-27T07:30:33.669Z,10.10
2019-03-27T07:31:33.614Z,10.17
2019-03-27T07:32:33.503Z,10.28
2019-03-27T07:33:33.422Z,10.32
2019-03-27T07:34:33.349Z,10.38
2019-03-27T07:35:33.256Z,10.55
2019-03-27T07:36:33.210Z,10.66
2019-03-27T07:37:33.113Z,10.83
2019-03-27T07:38:33.011Z,10.94
2019-03-27T07:39:32.949Z,10.93
2019-03-27T07:40:32.855Z,10.94
2019-03-27T07:41:32.805Z,11.06
2019-03-27T07:42:32.696Z,10.99
2019-03-27T07:43:32.617Z,11.01
2019-03-27T07:44:32.531Z,11.03
2019-03-27T07:45:32.461Z,10.98
2019-03-27T07:46:32.382Z,10.91
2019-03-27T07:47:32.313Z,10.88
2019-03-27T07:48:32.210Z,10.93
2019-03-27T07:49:32.133Z,10.90
2019-03-27T07:50:32.051Z,10.90
2019-03-27T07:51:31.997Z,10.76
2019-03-27T07:52:31.887Z,10.66
2019-03-27T07:53:31.816Z,10.62
2019-03-27T07:54:31.728Z,10.54
2019-03-27T07:55:31.657Z,10.58
2019-03-27T07:56:31.587Z,10.58
2019-03-27T07:57:31.490Z,10.65
2019-03-27T07:58:31.403Z,10.72
2019-03-27T07:59:31.330Z,10.70
2019-03-27T08:00:31.246Z,10.73
2019-03-27T08:01:31.166Z,10.68
2019-03-27T08:02:31.146Z,10.62
2019-03-27T08:03:30.998Z,10.55
2019-03-27T08:04:30.921Z,10.57
2019-03-27T08:05:30.883Z,10.60
2019-03-27T08:06:30.756Z,10.69
2019-03-27T08:07:30.697Z,10.78
2019-03-27T08:08:30.602Z,10.87
2019-03-27T08:09:30.509Z,11.12
2019-03-27T08:10:30.440Z,11.35
2019-03-27T08:11:30.472Z,11.46
2019-03-27T08:12:30.281Z,11.62
2019-03-27T08:13:30.192Z,11.79
2019-03-27T08:14:30.107Z,11.82
2019-03-27T08:15:30.025Z,11.97
2019-03-27T08:16:29.957Z,12.08
2019-03-27T08:17:29.873Z,12.11
2019-03-27T08:18:29.788Z,12.07
2019-03-27T08:19:29.721Z,12.16
2019-03-27T08:20:29.633Z,12.03
2019-03-27T08:21:31.207Z,11.85
2019-03-27T08:22:29.483Z,11.82
2019-03-27T08:23:29.385Z,11.64
2019-03-27T08:24:29.319Z,11.62
2019-03-27T08:25:29.224Z,11.66
2019-03-27T08:26:29.153Z,11.67
2019-03-27T08:27:29.103Z,11.67
2019-03-27T08:28:29.021Z,11.96
2019-03-27T08:29:28.913Z,12.01
2019-03-27T08:30:28.819Z,11.96
2019-03-27T08:31:28.744Z,11.84
2019-03-27T08:32:28.681Z,11.88
2019-03-27T08:33:28.611Z,11.85
2019-03-27T08:34:28.506Z,11.75
2019-03-27T08:35:28.425Z,11.78
2019-03-27T08:36:28.347Z,11.81
2019-03-27T08:37:28.266Z,11.64
2019-03-27T08:38:28.184Z,11.46
2019-03-27T08:39:28.102Z,11.33
2019-03-27T08:40:29.032Z,11.23
2019-03-27T08:41:27.934Z,11.26
2019-03-27T08:42:27.880Z,11.11
2019-03-27T08:43:27.780Z,10.99
2019-03-27T08:44:27.696Z,11.05
2019-03-27T08:45:27.621Z,11.09
2019-03-27T08:46:27.544Z,10.94
2019-03-27T08:47:27.492Z,10.90
2019-03-27T08:48:27.377Z,10.94
2019-03-27T08:49:27.294Z,10.87
2019-03-27T08:50:27.202Z,10.90
2019-03-27T08:51:27.128Z,10.87
2019-03-27T08:52:27.056Z,10.94
2019-03-27T08:53:26.976Z,10.98
2019-03-27T08:54:26.888Z,11.02
2019-03-27T08:55:26.802Z,11.12
2019-03-27T08:56:26.803Z,11.11
2019-03-27T08:57:26.646Z,11.21
2019-03-27T08:58:26.559Z,11.24
2019-03-27T08:59:26.471Z,11.30
2019-03-27T09:00:26.401Z,11.38
2019-03-27T09:01:26.323Z,11.35
2019-03-27T09:02:26.266Z,11.42
2019-03-27T09:03:26.156Z,11.56
2019-03-27T09:04:26.068Z,11.51
2019-03-27T09:05:25.980Z,11.51
2019-03-27T09:06:33.561Z,11.56
2019-03-27T09:07:25.839Z,11.57
2019-03-27T09:08:25.748Z,11.59
2019-03-27T09:09:25.661Z,11.56
2019-03-27T09:10:25.583Z,11.63
2019-03-27T09:11:25.498Z,11.63
2019-03-27T09:12:25.529Z,11.64
2019-03-27T09:13:25.340Z,11.67
2019-03-27T09:14:25.263Z,11.69
2019-03-27T09:15:25.186Z,11.67
2019-03-27T09:16:25.093Z,11.67
2019-03-27T09:17:25.021Z,11.64
2019-03-27T09:18:25.112Z,12.04
2019-03-27T09:19:35.059Z,12.12
2019-03-27T09:20:24.920Z,12.37
2019-03-27T09:21:24.682Z,12.62
2019-03-27T09:22:24.760Z,12.76
2019-03-27T09:23:24.526Z,12.74
2019-03-27T09:24:24.449Z,13.06
2019-03-27T09:25:24.371Z,13.39
2019-03-27T09:26:24.324Z,13.73
2019-03-27T09:27:24.219Z,13.91
2019-03-27T09:28:24.155Z,14.29
2019-03-27T09:29:24.043Z,14.46
2019-03-27T09:30:23.963Z,14.78
2019-03-27T09:31:23.892Z,14.91
2019-03-27T09:32:23.821Z,15.18
2019-03-27T09:33:24.131Z,15.37
2019-03-27T09:34:23.786Z,15.34
2019-03-27T09:35:23.571Z,15.58
2019-03-27T09:36:23.497Z,15.59
2019-03-27T09:37:23.657Z,15.48
2019-03-27T09:38:23.344Z,15.59
2019-03-27T09:39:23.261Z,15.71
2019-03-27T09:40:23.196Z,15.80
2019-03-27T09:41:23.200Z,15.84
2019-03-27T09:42:23.054Z,15.91
2019-03-27T09:43:23.023Z,15.95
2019-03-27T09:44:22.892Z,16.22
2019-03-27T09:45:22.831Z,16.45
2019-03-27T09:46:22.750Z,16.66
2019-03-27T09:47:22.880Z,16.37
2019-03-27T09:48:22.592Z,16.47
2019-03-27T09:49:22.656Z,16.73
2019-03-27T09:50:22.443Z,16.82
2019-03-27T09:51:22.470Z,16.87
2019-03-27T09:52:22.311Z,16.54
2019-03-27T09:53:22.273Z,16.48
2019-03-27T09:54:22.143Z,16.34
2019-03-27T09:55:22.074Z,16.18
2019-03-27T09:56:22.087Z,16.26
2019-03-27T09:57:21.947Z,15.78
2019-03-27T09:58:21.854Z,15.56
2019-03-27T09:59:21.805Z,15.30
2019-03-27T10:00:21.711Z,15.05
2019-03-27T10:01:21.641Z,14.61
2019-03-27T10:02:21.754Z,14.19
2019-03-27T10:03:21.526Z,13.93
2019-03-27T10:04:21.419Z,13.81
2019-03-27T10:05:21.346Z,13.47
2019-03-27T10:06:21.280Z,13.29
2019-03-27T10:07:21.200Z,13.24
2019-03-27T10:08:21.135Z,13.22
2019-03-27T10:09:21.041Z,13.12
2019-03-27T10:10:20.966Z,13.16
2019-03-27T10:11:23.717Z,13.10
2019-03-27T10:12:20.815Z,13.09
2019-03-27T10:13:20.726Z,12.95
2019-03-27T10:14:20.653Z,12.76
2019-03-27T10:15:20.599Z,12.66
2019-03-27T10:16:20.506Z,12.40
2019-03-27T10:17:20.425Z,12.29
2019-03-27T10:18:20.338Z,11.98
2019-03-27T10:19:20.255Z,11.96
2019-03-27T10:20:20.178Z,11.79
2019-03-27T10:21:20.090Z,11.78
2019-03-27T10:22:20.039Z,11.97
2019-03-27T10:23:19.935Z,11.69
2019-03-27T10:24:19.857Z,11.77
2019-03-27T10:25:19.778Z,11.66
2019-03-27T10:26:19.693Z,11.57
2019-03-27T10:27:19.627Z,11.59
2019-03-27T10:28:19.527Z,11.49
2019-03-27T10:29:19.453Z,11.59
2019-03-27T10:30:19.382Z,11.63
2019-03-27T10:31:19.289Z,11.66
2019-03-27T10:32:19.234Z,11.82
2019-03-27T10:33:19.120Z,11.98
2019-03-27T10:34:19.049Z,12.07
2019-03-27T10:35:18.975Z,12.11
2019-03-27T10:36:18.881Z,12.26
2019-03-27T10:37:18.818Z,12.25
2019-03-27T10:38:18.724Z,12.30
2019-03-27T10:39:18.635Z,12.38
2019-03-27T10:40:18.558Z,12.37
2019-03-27T10:41:18.481Z,12.43
2019-03-27T10:42:18.410Z,12.46
2019-03-27T10:43:18.320Z,12.61
2019-03-27T10:44:18.237Z,12.69
2019-03-27T10:45:18.153Z,12.66
2019-03-27T10:46:18.069Z,12.88
2019-03-27T10:47:18.013Z,12.84
2019-03-27T10:48:17.919Z,12.81
2019-03-27T10:49:17.826Z,12.70
2019-03-27T10:50:18.276Z,12.79
2019-03-27T10:51:17.669Z,12.80
2019-03-27T10:52:17.597Z,12.73
2019-03-27T10:53:17.524Z,12.85
2019-03-27T10:54:17.430Z,12.88
2019-03-27T10:55:17.340Z,12.96
2019-03-27T10:56:17.268Z,12.98
2019-03-27T10:57:17.189Z,12.94
2019-03-27T10:58:17.108Z,13.03
2019-03-27T10:59:17.033Z,13.07
2019-03-27T11:00:16.936Z,13.17
2019-03-27T11:01:16.860Z,13.17
2019-03-27T11:02:16.786Z,13.29
2019-03-27T11:03:16.702Z,13.50
2019-03-27T11:04:16.614Z,13.61
2019-03-27T11:05:16.544Z,13.66
2019-03-27T11:06:16.462Z,13.98
2019-03-27T11:07:16.399Z,14.23
2019-03-27T11:08:16.291Z,14.35
2019-03-27T11:09:16.218Z,14.85
2019-03-27T11:10:16.132Z,15.52
2019-03-27T11:11:16.144Z,15.85
2019-03-27T11:12:15.989Z,15.78
2019-03-27T11:13:15.900Z,15.93
2019-03-27T11:14:15.811Z,15.88
2019-03-27T11:15:15.748Z,15.58
2019-03-27T11:16:15.669Z,15.46
2019-03-27T11:17:15.582Z,15.15
2019-03-27T11:18:15.509Z,14.91
2019-03-27T11:19:15.423Z,14.82
2019-03-27T11:20:15.348Z,14.64
2019-03-27T11:21:15.276Z,14.60
2019-03-27T11:22:15.181Z,14.56
2019-03-27T11:23:15.134Z,14.44
2019-03-27T11:24:15.026Z,14.46
2019-03-27T11:25:14.952Z,14.30
2019-03-27T11:26:14.864Z,14.06
2019-03-27T11:27:14.894Z,13.91
2019-03-27T11:28:14.724Z,13.86
2019-03-27T11:29:14.633Z,13.79
2019-03-27T11:30:14.551Z,13.71
2019-03-27T11:31:14.474Z,13.80
2019-03-27T11:32:14.390Z,13.87
2019-03-27T11:33:14.340Z,13.75
2019-03-27T11:34:14.232Z,13.81
2019-03-27T11:35:14.157Z,13.87
2019-03-27T11:36:14.071Z,13.98
2019-03-27T11:37:13.995Z,13.84
2019-03-27T11:38:13.920Z,13.80
2019-03-27T11:39:13.847Z,13.68
2019-03-27T11:40:13.756Z,13.72
2019-03-27T11:41:13.679Z,13.63
2019-03-27T11:42:13.597Z,13.75
2019-03-27T11:43:13.532Z,13.84
2019-03-27T11:44:13.439Z,13.87
2019-03-27T11:45:13.371Z,13.93
2019-03-27T11:46:13.279Z,13.93
2019-03-27T11:47:13.200Z,13.87
2019-03-27T11:48:13.126Z,13.90
2019-03-27T11:49:13.034Z,13.93
2019-03-27T11:50:12.957Z,13.91
2019-03-27T11:51:12.876Z,13.98
2019-03-27T11:52:12.804Z,13.99
2019-03-27T11:53:12.720Z,13.87
2019-03-27T11:54:12.642Z,13.91
2019-03-27T11:55:12.555Z,13.94
2019-03-27T11:56:12.479Z,13.93
2019-03-27T11:57:12.389Z,13.88
2019-03-27T11:58:14.777Z,14.01
2019-03-27T11:59:12.229Z,13.91
2019-03-27T12:00:12.169Z,13.73
2019-03-27T12:01:12.067Z,13.66
2019-03-27T12:02:11.992Z,13.57
2019-03-27T12:03:11.920Z,13.65
2019-03-27T12:04:11.872Z,13.79
2019-03-27T12:05:11.765Z,13.80
2019-03-27T12:06:11.675Z,13.81
2019-03-27T12:07:11.607Z,13.88
2019-03-27T12:08:11.524Z,13.96
2019-03-27T12:09:11.426Z,13.93
2019-03-27T12:10:11.361Z,13.94
2019-03-27T12:11:11.268Z,13.96
2019-03-27T12:12:11.195Z,13.93
2019-03-27T12:13:11.114Z,13.94
2019-03-27T12:14:12.388Z,14.09
2019-03-27T12:15:10.944Z,14.16
2019-03-27T12:16:10.860Z,14.24
2019-03-27T12:17:10.781Z,14.31
2019-03-27T12:18:10.719Z,14.38
2019-03-27T12:19:10.625Z,14.63
2019-03-27T12:20:10.540Z,14.95
2019-03-27T12:21:10.474Z,15.41
2019-03-27T12:22:10.380Z,15.46
2019-03-27T12:23:10.317Z,15.58
2019-03-27T12:24:10.220Z,15.62
2019-03-27T12:25:10.164Z,15.60
2019-03-27T12:26:10.072Z,15.67
2019-03-27T12:27:09.980Z,15.58
2019-03-27T12:28:09.927Z,15.16
2019-03-27T12:29:09.829Z,14.86
2019-03-27T12:30:09.745Z,14.72
2019-03-27T12:31:09.660Z,14.78
2019-03-27T12:32:09.597Z,14.82
2019-03-27T12:33:09.536Z,14.78
2019-03-27T12:34:09.429Z,14.72
2019-03-27T12:35:09.365Z,14.78
2019-03-27T12:36:09.284Z,14.69
2019-03-27T12:37:09.202Z,14.67
2019-03-27T12:38:09.120Z,14.69
2019-03-27T12:39:09.118Z,14.67
2019-03-27T12:40:11.839Z,14.52
2019-03-27T12:41:08.875Z,14.36
2019-03-27T12:42:08.795Z,14.19
2019-03-27T12:43:08.717Z,14.20
2019-03-27T12:44:08.651Z,14.19
2019-03-27T12:45:08.643Z,14.17
2019-03-27T12:46:08.473Z,13.98
2019-03-27T12:47:08.402Z,14.02
2019-03-27T12:48:08.317Z,13.86
2019-03-27T12:49:08.245Z,13.79
2019-03-27T12:50:08.150Z,13.75
2019-03-27T12:51:13.117Z,13.73
2019-03-27T12:52:07.990Z,13.75
2019-03-27T12:53:07.922Z,13.80
2019-03-27T12:54:07.847Z,13.81
2019-03-27T12:55:07.759Z,13.98
2019-03-27T12:56:07.669Z,13.93
2019-03-27T12:57:07.602Z,13.94
2019-03-27T12:58:07.519Z,13.99
2019-03-27T12:59:07.443Z,13.94
2019-03-27T13:00:07.356Z,13.94
2019-03-27T13:01:07.277Z,13.86
2019-03-27T13:02:07.185Z,13.75
2019-03-27T13:03:07.139Z,13.88
2019-03-27T13:04:07.048Z,13.91
2019-03-27T13:05:06.958Z,13.86
2019-03-27T13:06:06.870Z,13.94